sensor_id;sensor_type;location;lat;lon;timestamp;temperature;humidity
14733;DHT22;7457;50.960;6.830;2022-11-10T00:01:55;10.70;99.90
14733;DHT22;7457;50.960;6.830;2022-11-10T00:04:21;10.70;99.90
14733;DHT22;7457;50.960;6.830;2022-11-10T00:06:47;10.70;99.90
14733;DHT22;7457;50.960;6.830;2022-11-10T00:09:13;10.70;99.90
14733;DHT22;7457;50.960;6.830;2022-11-10T00:11:40;10.80;99.90
14733;DHT22;7457;50.960;6.830;2022-11-10T00:14:05;10.80;99.90
14733;DHT22;7457;50.960;6.830;2022-11-10T00:16:49;10.80;99.90
14733;DHT22;7457;50.960;6.830;2022-11-10T00:19:29;10.80;99.90
14733;DHT22;7457;50.960;6.830;2022-11-10T00:21:55;10.80;99.90
14733;DHT22;7457;50.960;6.830;2022-11-10T00:24:21;10.90;99.90
14733;DHT22;7457;50.960;6.830;2022-11-10T00:26:47;10.90;99.90
14733;DHT22;7457;50.960;6.830;2022-11-10T00:29:13;11.00;99.90
14733;DHT22;7457;50.960;6.830;2022-11-10T00:31:39;11.00;99.90
14733;DHT22;7457;50.960;6.830;2022-11-10T00:34:06;11.00;99.90
14733;DHT22;7457;50.960;6.830;2022-11-10T00:36:33;11.00;99.90
14733;DHT22;7457;50.960;6.830;2022-11-10T00:38:59;11.00;99.90
14733;DHT22;7457;50.960;6.830;2022-11-10T00:41:25;11.00;99.90
14733;DHT22;7457;50.960;6.830;2022-11-10T00:43:50;11.00;99.90
14733;DHT22;7457;50.960;6.830;2022-11-10T00:46:16;10.90;99.90
14733;DHT22;7457;50.960;6.830;2022-11-10T00:48:42;10.90;99.90
14733;DHT22;7457;50.960;6.830;2022-11-10T00:51:12;10.80;99.90
14733;DHT22;7457;50.960;6.830;2022-11-10T00:53:39;10.80;99.90
14733;DHT22;7457;50.960;6.830;2022-11-10T00:56:05;10.70;99.90
14733;DHT22;7457;50.960;6.830;2022-11-10T00:58:30;10.60;99.90
14733;DHT22;7457;50.960;6.830;2022-11-10T01:01:02;10.60;99.90
14733;DHT22;7457;50.960;6.830;2022-11-10T01:03:28;10.50;99.90
14733;DHT22;7457;50.960;6.830;2022-11-10T01:05:54;10.50;99.90
14733;DHT22;7457;50.960;6.830;2022-11-10T01:08:19;10.40;99.90
14733;DHT22;7457;50.960;6.830;2022-11-10T01:10:45;10.40;99.90
14733;DHT22;7457;50.960;6.830;2022-11-10T01:13:11;10.30;99.90
14733;DHT22;7457;50.960;6.830;2022-11-10T01:15:40;10.30;99.90
14733;DHT22;7457;50.960;6.830;2022-11-10T01:18:05;10.20;99.90
14733;DHT22;7457;50.960;6.830;2022-11-10T01:20:32;10.20;99.90
14733;DHT22;7457;50.960;6.830;2022-11-10T01:22:58;10.10;99.90
14733;DHT22;7457;50.960;6.830;2022-11-10T01:25:23;10.00;99.90
14733;DHT22;7457;50.960;6.830;2022-11-10T01:27:50;10.00;99.90
14733;DHT22;7457;50.960;6.830;2022-11-10T01:30:16;10.00;99.90
14733;DHT22;7457;50.960;6.830;2022-11-10T01:32:42;9.90;99.90
14733;DHT22;7457;50.960;6.830;2022-11-10T01:35:08;9.80;99.90
14733;DHT22;7457;50.960;6.830;2022-11-10T01:37:34;9.80;99.90
14733;DHT22;7457;50.960;6.830;2022-11-10T01:39:59;9.80;99.90
14733;DHT22;7457;50.960;6.830;2022-11-10T01:42:28;9.70;99.90
14733;DHT22;7457;50.960;6.830;2022-11-10T01:47:49;9.70;99.90
14733;DHT22;7457;50.960;6.830;2022-11-10T01:50:15;9.60;99.90
14733;DHT22;7457;50.960;6.830;2022-11-10T01:52:43;9.50;99.90
14733;DHT22;7457;50.960;6.830;2022-11-10T01:55:11;9.50;99.90
14733;DHT22;7457;50.960;6.830;2022-11-10T01:57:37;9.50;99.90
14733;DHT22;7457;50.960;6.830;2022-11-10T02:00:04;9.40;99.90
14733;DHT22;7457;50.960;6.830;2022-11-10T02:02:38;9.40;99.90
14733;DHT22;7457;50.960;6.830;2022-11-10T02:05:07;9.40;99.90
14733;DHT22;7457;50.960;6.830;2022-11-10T02:07:33;9.40;99.90
14733;DHT22;7457;50.960;6.830;2022-11-10T02:10:03;9.40;99.90
14733;DHT22;7457;50.960;6.830;2022-11-10T02:12:30;9.30;99.90
14733;DHT22;7457;50.960;6.830;2022-11-10T02:15:04;9.30;99.90
14733;DHT22;7457;50.960;6.830;2022-11-10T02:17:30;9.30;99.90
14733;DHT22;7457;50.960;6.830;2022-11-10T02:20:00;9.30;99.90
14733;DHT22;7457;50.960;6.830;2022-11-10T02:22:32;9.30;99.90
14733;DHT22;7457;50.960;6.830;2022-11-10T02:24:57;9.20;99.90
14733;DHT22;7457;50.960;6.830;2022-11-10T02:27:23;9.20;99.90
14733;DHT22;7457;50.960;6.830;2022-11-10T02:29:49;9.10;99.90
14733;DHT22;7457;50.960;6.830;2022-11-10T02:32:14;9.10;99.90
14733;DHT22;7457;50.960;6.830;2022-11-10T02:34:41;9.00;99.90
14733;DHT22;7457;50.960;6.830;2022-11-10T02:37:06;9.00;99.90
14733;DHT22;7457;50.960;6.830;2022-11-10T02:39:32;9.00;99.90
14733;DHT22;7457;50.960;6.830;2022-11-10T02:41:57;9.00;99.90
14733;DHT22;7457;50.960;6.830;2022-11-10T02:44:23;9.00;99.90
14733;DHT22;7457;50.960;6.830;2022-11-10T02:46:49;9.00;99.90
14733;DHT22;7457;50.960;6.830;2022-11-10T02:49:14;9.00;99.90
14733;DHT22;7457;50.960;6.830;2022-11-10T02:51:40;9.00;99.90
14733;DHT22;7457;50.960;6.830;2022-11-10T02:54:05;9.00;99.90
14733;DHT22;7457;50.960;6.830;2022-11-10T02:56:31;9.00;99.90
14733;DHT22;7457;50.960;6.830;2022-11-10T02:58:57;9.00;99.90
14733;DHT22;7457;50.960;6.830;2022-11-10T03:01:22;9.10;99.90
14733;DHT22;7457;50.960;6.830;2022-11-10T03:03:48;9.20;99.90
14733;DHT22;7457;50.960;6.830;2022-11-10T03:06:13;9.10;99.90
14733;DHT22;7457;50.960;6.830;2022-11-10T03:08:39;9.20;99.90
14733;DHT22;7457;50.960;6.830;2022-11-10T03:11:05;9.20;99.90
14733;DHT22;7457;50.960;6.830;2022-11-10T03:13:31;9.30;99.90
14733;DHT22;7457;50.960;6.830;2022-11-10T03:15:57;9.30;99.90
14733;DHT22;7457;50.960;6.830;2022-11-10T03:18:22;9.30;99.90
14733;DHT22;7457;50.960;6.830;2022-11-10T03:20:48;9.30;99.90
14733;DHT22;7457;50.960;6.830;2022-11-10T03:23:16;9.40;99.90
14733;DHT22;7457;50.960;6.830;2022-11-10T03:25:41;9.50;99.90
14733;DHT22;7457;50.960;6.830;2022-11-10T03:28:07;9.50;99.90
14733;DHT22;7457;50.960;6.830;2022-11-10T03:30:33;9.50;99.90
14733;DHT22;7457;50.960;6.830;2022-11-10T03:32:59;9.50;99.90
14733;DHT22;7457;50.960;6.830;2022-11-10T03:35:25;9.50;99.90
14733;DHT22;7457;50.960;6.830;2022-11-10T03:37:50;9.50;99.90
14733;DHT22;7457;50.960;6.830;2022-11-10T03:40:16;9.50;99.90
14733;DHT22;7457;50.960;6.830;2022-11-10T03:42:42;9.60;99.90
14733;DHT22;7457;50.960;6.830;2022-11-10T03:45:10;9.60;99.90
14733;DHT22;7457;50.960;6.830;2022-11-10T03:47:36;9.60;99.90
14733;DHT22;7457;50.960;6.830;2022-11-10T03:50:03;9.70;99.90
14733;DHT22;7457;50.960;6.830;2022-11-10T03:52:29;9.70;99.90
14733;DHT22;7457;50.960;6.830;2022-11-10T03:54:54;9.80;99.90
14733;DHT22;7457;50.960;6.830;2022-11-10T03:57:20;9.80;99.90
14733;DHT22;7457;50.960;6.830;2022-11-10T03:59:45;9.80;99.90
14733;DHT22;7457;50.960;6.830;2022-11-10T04:02:11;9.80;99.90
14733;DHT22;7457;50.960;6.830;2022-11-10T04:04:37;9.80;99.90
14733;DHT22;7457;50.960;6.830;2022-11-10T04:07:21;9.80;99.90
14733;DHT22;7457;50.960;6.830;2022-11-10T04:10:05;9.80;99.90
14733;DHT22;7457;50.960;6.830;2022-11-10T04:12:31;9.70;99.90
14733;DHT22;7457;50.960;6.830;2022-11-10T04:15:15;9.70;99.90
14733;DHT22;7457;50.960;6.830;2022-11-10T04:18:00;9.70;99.90
14733;DHT22;7457;50.960;6.830;2022-11-10T04:20:44;9.70;99.90
14733;DHT22;7457;50.960;6.830;2022-11-10T04:23:09;9.60;99.90
14733;DHT22;7457;50.960;6.830;2022-11-10T04:28:51;9.60;99.90
14733;DHT22;7457;50.960;6.830;2022-11-10T04:31:18;9.60;99.90
14733;DHT22;7457;50.960;6.830;2022-11-10T04:33:44;9.60;99.90
14733;DHT22;7457;50.960;6.830;2022-11-10T04:36:12;9.50;99.90
14733;DHT22;7457;50.960;6.830;2022-11-10T04:38:38;9.50;99.90
14733;DHT22;7457;50.960;6.830;2022-11-10T04:41:04;9.40;99.90
14733;DHT22;7457;50.960;6.830;2022-11-10T04:43:30;9.40;99.90
14733;DHT22;7457;50.960;6.830;2022-11-10T04:45:56;9.40;99.90
14733;DHT22;7457;50.960;6.830;2022-11-10T04:48:22;9.30;99.90
14733;DHT22;7457;50.960;6.830;2022-11-10T04:50:48;9.30;99.90
14733;DHT22;7457;50.960;6.830;2022-11-10T04:53:14;9.30;99.90
14733;DHT22;7457;50.960;6.830;2022-11-10T04:55:44;9.30;99.90
14733;DHT22;7457;50.960;6.830;2022-11-10T04:58:11;9.40;99.90
14733;DHT22;7457;50.960;6.830;2022-11-10T05:00:37;9.40;99.90
14733;DHT22;7457;50.960;6.830;2022-11-10T05:03:05;9.40;99.90
14733;DHT22;7457;50.960;6.830;2022-11-10T05:05:31;9.50;99.90
14733;DHT22;7457;50.960;6.830;2022-11-10T05:07:56;9.50;99.90
14733;DHT22;7457;50.960;6.830;2022-11-10T05:10:23;9.40;99.90
14733;DHT22;7457;50.960;6.830;2022-11-10T05:12:51;9.40;99.90
14733;DHT22;7457;50.960;6.830;2022-11-10T05:15:17;9.40;99.90
14733;DHT22;7457;50.960;6.830;2022-11-10T05:17:42;9.40;99.90
14733;DHT22;7457;50.960;6.830;2022-11-10T05:20:12;9.30;99.90
14733;DHT22;7457;50.960;6.830;2022-11-10T05:22:37;9.30;99.90
14733;DHT22;7457;50.960;6.830;2022-11-10T05:25:03;9.30;99.90
14733;DHT22;7457;50.960;6.830;2022-11-10T05:27:28;9.20;99.90
14733;DHT22;7457;50.960;6.830;2022-11-10T05:29:54;9.20;99.90
14733;DHT22;7457;50.960;6.830;2022-11-10T05:32:20;9.20;99.90
14733;DHT22;7457;50.960;6.830;2022-11-10T05:34:45;9.20;99.90
14733;DHT22;7457;50.960;6.830;2022-11-10T05:37:11;9.20;99.90
14733;DHT22;7457;50.960;6.830;2022-11-10T05:39:36;9.10;99.90
14733;DHT22;7457;50.960;6.830;2022-11-10T05:42:02;9.00;99.90
14733;DHT22;7457;50.960;6.830;2022-11-10T05:44:27;9.00;99.90
14733;DHT22;7457;50.960;6.830;2022-11-10T05:46:53;9.00;99.90
14733;DHT22;7457;50.960;6.830;2022-11-10T05:49:19;8.90;99.90
14733;DHT22;7457;50.960;6.830;2022-11-10T05:51:44;8.90;99.90
14733;DHT22;7457;50.960;6.830;2022-11-10T05:54:10;8.90;99.90
14733;DHT22;7457;50.960;6.830;2022-11-10T05:56:35;8.90;99.90
14733;DHT22;7457;50.960;6.830;2022-11-10T05:59:01;8.90;99.90
14733;DHT22;7457;50.960;6.830;2022-11-10T06:01:26;8.80;99.90
14733;DHT22;7457;50.960;6.830;2022-11-10T06:03:52;8.80;99.90
14733;DHT22;7457;50.960;6.830;2022-11-10T06:06:17;8.90;99.90
14733;DHT22;7457;50.960;6.830;2022-11-10T06:08:43;8.80;99.90
14733;DHT22;7457;50.960;6.830;2022-11-10T06:11:09;8.80;99.90
14733;DHT22;7457;50.960;6.830;2022-11-10T06:13:34;8.80;99.90
14733;DHT22;7457;50.960;6.830;2022-11-10T06:16:00;8.80;99.90
14733;DHT22;7457;50.960;6.830;2022-11-10T06:18:25;8.80;99.90
14733;DHT22;7457;50.960;6.830;2022-11-10T06:20:51;8.80;99.90
14733;DHT22;7457;50.960;6.830;2022-11-10T06:23:16;8.80;99.90
14733;DHT22;7457;50.960;6.830;2022-11-10T06:25:42;8.80;99.90
14733;DHT22;7457;50.960;6.830;2022-11-10T06:28:09;8.80;99.90
14733;DHT22;7457;50.960;6.830;2022-11-10T06:30:36;8.80;99.90
14733;DHT22;7457;50.960;6.830;2022-11-10T06:33:02;8.80;99.90
14733;DHT22;7457;50.960;6.830;2022-11-10T06:35:28;8.70;99.90
14733;DHT22;7457;50.960;6.830;2022-11-10T06:40:25;8.70;99.90
14733;DHT22;7457;50.960;6.830;2022-11-10T06:42:51;8.60;99.90
14733;DHT22;7457;50.960;6.830;2022-11-10T06:45:17;8.60;99.90
14733;DHT22;7457;50.960;6.830;2022-11-10T06:47:42;8.60;99.90
14733;DHT22;7457;50.960;6.830;2022-11-10T06:50:08;8.60;99.90
14733;DHT22;7457;50.960;6.830;2022-11-10T06:52:34;8.60;99.90
14733;DHT22;7457;50.960;6.830;2022-11-10T06:55:00;8.60;99.90
14733;DHT22;7457;50.960;6.830;2022-11-10T06:57:25;8.60;99.90
14733;DHT22;7457;50.960;6.830;2022-11-10T06:59:51;8.70;99.90
14733;DHT22;7457;50.960;6.830;2022-11-10T07:02:17;8.70;99.90
14733;DHT22;7457;50.960;6.830;2022-11-10T07:04:43;8.80;99.90
14733;DHT22;7457;50.960;6.830;2022-11-10T07:07:09;8.80;99.90
14733;DHT22;7457;50.960;6.830;2022-11-10T07:09:35;8.90;99.90
14733;DHT22;7457;50.960;6.830;2022-11-10T07:12:02;8.90;99.90
14733;DHT22;7457;50.960;6.830;2022-11-10T07:14:28;9.00;99.90
14733;DHT22;7457;50.960;6.830;2022-11-10T07:16:54;9.10;99.90
14733;DHT22;7457;50.960;6.830;2022-11-10T07:19:19;9.20;99.90
14733;DHT22;7457;50.960;6.830;2022-11-10T07:21:45;9.20;99.90
14733;DHT22;7457;50.960;6.830;2022-11-10T07:24:10;9.30;99.90
14733;DHT22;7457;50.960;6.830;2022-11-10T07:26:36;9.30;99.90
14733;DHT22;7457;50.960;6.830;2022-11-10T07:29:02;9.40;99.90
14733;DHT22;7457;50.960;6.830;2022-11-10T07:31:27;9.40;99.90
14733;DHT22;7457;50.960;6.830;2022-11-10T07:33:53;9.40;99.90
14733;DHT22;7457;50.960;6.830;2022-11-10T07:36:18;9.50;99.90
14733;DHT22;7457;50.960;6.830;2022-11-10T07:38:44;9.60;99.90
14733;DHT22;7457;50.960;6.830;2022-11-10T07:41:09;9.70;99.90
14733;DHT22;7457;50.960;6.830;2022-11-10T07:43:35;9.80;99.90
14733;DHT22;7457;50.960;6.830;2022-11-10T07:46:01;10.00;99.90
14733;DHT22;7457;50.960;6.830;2022-11-10T07:48:26;10.10;99.90
14733;DHT22;7457;50.960;6.830;2022-11-10T07:50:52;10.20;99.90
14733;DHT22;7457;50.960;6.830;2022-11-10T07:53:19;10.40;99.90
14733;DHT22;7457;50.960;6.830;2022-11-10T07:55:45;10.50;99.90
14733;DHT22;7457;50.960;6.830;2022-11-10T07:58:12;10.70;99.90
14733;DHT22;7457;50.960;6.830;2022-11-10T08:00:39;10.80;99.90
14733;DHT22;7457;50.960;6.830;2022-11-10T08:05:38;11.20;99.90
14733;DHT22;7457;50.960;6.830;2022-11-10T08:08:04;11.50;99.90
14733;DHT22;7457;50.960;6.830;2022-11-10T08:10:30;11.60;99.90
14733;DHT22;7457;50.960;6.830;2022-11-10T08:12:58;11.80;99.90
14733;DHT22;7457;50.960;6.830;2022-11-10T08:15:25;12.00;99.90
14733;DHT22;7457;50.960;6.830;2022-11-10T08:17:53;12.10;99.90
14733;DHT22;7457;50.960;6.830;2022-11-10T08:20:22;12.20;99.90
14733;DHT22;7457;50.960;6.830;2022-11-10T08:22:47;12.40;99.90
14733;DHT22;7457;50.960;6.830;2022-11-10T08:25:13;12.50;99.90
14733;DHT22;7457;50.960;6.830;2022-11-10T08:27:39;12.70;99.90
14733;DHT22;7457;50.960;6.830;2022-11-10T08:30:05;12.80;99.90
14733;DHT22;7457;50.960;6.830;2022-11-10T08:32:30;12.90;99.90
14733;DHT22;7457;50.960;6.830;2022-11-10T08:34:56;12.90;99.90
14733;DHT22;7457;50.960;6.830;2022-11-10T08:37:22;12.90;99.90
14733;DHT22;7457;50.960;6.830;2022-11-10T08:39:48;13.00;99.90
14733;DHT22;7457;50.960;6.830;2022-11-10T08:42:14;13.00;99.90
14733;DHT22;7457;50.960;6.830;2022-11-10T08:44:39;13.00;99.90
14733;DHT22;7457;50.960;6.830;2022-11-10T08:47:05;13.10;99.90
14733;DHT22;7457;50.960;6.830;2022-11-10T08:49:30;13.20;99.90
14733;DHT22;7457;50.960;6.830;2022-11-10T08:51:56;13.40;99.90
14733;DHT22;7457;50.960;6.830;2022-11-10T08:54:21;13.50;99.90
14733;DHT22;7457;50.960;6.830;2022-11-10T08:56:47;13.70;99.90
14733;DHT22;7457;50.960;6.830;2022-11-10T08:59:12;13.90;99.90
14733;DHT22;7457;50.960;6.830;2022-11-10T09:01:38;14.10;99.90
14733;DHT22;7457;50.960;6.830;2022-11-10T09:04:03;14.20;99.90
14733;DHT22;7457;50.960;6.830;2022-11-10T09:06:29;14.30;99.90
14733;DHT22;7457;50.960;6.830;2022-11-10T09:08:55;14.40;99.90
14733;DHT22;7457;50.960;6.830;2022-11-10T09:11:20;14.60;99.90
14733;DHT22;7457;50.960;6.830;2022-11-10T09:13:46;14.70;99.90
14733;DHT22;7457;50.960;6.830;2022-11-10T09:16:12;14.80;99.90
14733;DHT22;7457;50.960;6.830;2022-11-10T09:18:37;15.00;99.90
14733;DHT22;7457;50.960;6.830;2022-11-10T09:21:03;15.10;99.90
14733;DHT22;7457;50.960;6.830;2022-11-10T09:23:36;15.30;99.90
14733;DHT22;7457;50.960;6.830;2022-11-10T09:26:01;15.50;99.90
14733;DHT22;7457;50.960;6.830;2022-11-10T09:28:30;15.70;99.90
14733;DHT22;7457;50.960;6.830;2022-11-10T09:30:55;15.90;99.90
14733;DHT22;7457;50.960;6.830;2022-11-10T09:33:21;16.20;99.90
14733;DHT22;7457;50.960;6.830;2022-11-10T09:35:46;16.60;99.90
14733;DHT22;7457;50.960;6.830;2022-11-10T09:38:12;17.00;99.90
14733;DHT22;7457;50.960;6.830;2022-11-10T09:46:30;17.80;99.90
14733;DHT22;7457;50.960;6.830;2022-11-10T09:49:13;18.10;99.90
14733;DHT22;7457;50.960;6.830;2022-11-10T09:51:43;18.50;99.90
14733;DHT22;7457;50.960;6.830;2022-11-10T09:56:57;19.20;99.60
14733;DHT22;7457;50.960;6.830;2022-11-10T09:59:29;19.60;99.10
14733;DHT22;7457;50.960;6.830;2022-11-10T10:07:23;20.50;96.60
14733;DHT22;7457;50.960;6.830;2022-11-10T10:19:22;20.80;94.10
14733;DHT22;7457;50.960;6.830;2022-11-10T10:22:51;21.00;93.90
14733;DHT22;7457;50.960;6.830;2022-11-10T10:24:45;20.90;93.40
14733;DHT22;7457;50.960;6.830;2022-11-10T10:27:20;21.20;93.80
14733;DHT22;7457;50.960;6.830;2022-11-10T10:29:47;21.40;92.90
14733;DHT22;7457;50.960;6.830;2022-11-10T10:32:14;21.60;92.70
14733;DHT22;7457;50.960;6.830;2022-11-10T10:34:42;21.70;92.10
14733;DHT22;7457;50.960;6.830;2022-11-10T10:37:38;21.70;91.70
14733;DHT22;7457;50.960;6.830;2022-11-10T10:40:07;21.80;90.90
14733;DHT22;7457;50.960;6.830;2022-11-10T10:42:35;21.80;91.30
14733;DHT22;7457;50.960;6.830;2022-11-10T10:47:50;22.30;90.70
14733;DHT22;7457;50.960;6.830;2022-11-10T10:55:43;21.90;84.80
14733;DHT22;7457;50.960;6.830;2022-11-10T11:00:55;21.80;86.70
14733;DHT22;7457;50.960;6.830;2022-11-10T11:03:25;22.00;87.10
14733;DHT22;7457;50.960;6.830;2022-11-10T11:06:05;22.10;86.10
14733;DHT22;7457;50.960;6.830;2022-11-10T11:08:31;21.70;82.60
14733;DHT22;7457;50.960;6.830;2022-11-10T11:11:06;21.60;84.20
14733;DHT22;7457;50.960;6.830;2022-11-10T11:13:32;21.40;84.30
14733;DHT22;7457;50.960;6.830;2022-11-10T11:15:59;21.20;84.10
14733;DHT22;7457;50.960;6.830;2022-11-10T11:18:31;21.10;84.10
14733;DHT22;7457;50.960;6.830;2022-11-10T11:24:08;21.40;86.30
14733;DHT22;7457;50.960;6.830;2022-11-10T11:45:39;22.50;81.60
14733;DHT22;7457;50.960;6.830;2022-11-10T11:56:25;22.40;78.40
14733;DHT22;7457;50.960;6.830;2022-11-10T12:09:35;21.90;77.90
14733;DHT22;7457;50.960;6.830;2022-11-10T12:12:28;21.80;78.40
14733;DHT22;7457;50.960;6.830;2022-11-10T12:18:06;21.70;78.70
14733;DHT22;7457;50.960;6.830;2022-11-10T12:28:51;19.70;79.50
14733;DHT22;7457;50.960;6.830;2022-11-10T12:31:21;19.30;80.10
14733;DHT22;7457;50.960;6.830;2022-11-10T12:36:23;18.60;82.20
14733;DHT22;7457;50.960;6.830;2022-11-10T12:39:04;18.40;82.50
14733;DHT22;7457;50.960;6.830;2022-11-10T12:41:44;18.10;83.70
14733;DHT22;7457;50.960;6.830;2022-11-10T12:44:30;17.90;83.70
14733;DHT22;7457;50.960;6.830;2022-11-10T12:47:01;17.80;84.50
14733;DHT22;7457;50.960;6.830;2022-11-10T12:49:34;17.60;85.00
14733;DHT22;7457;50.960;6.830;2022-11-10T12:54:37;17.40;86.20
14733;DHT22;7457;50.960;6.830;2022-11-10T12:57:10;17.30;86.10
14733;DHT22;7457;50.960;6.830;2022-11-10T12:59:39;17.30;86.50
14733;DHT22;7457;50.960;6.830;2022-11-10T13:02:22;17.20;86.70
14733;DHT22;7457;50.960;6.830;2022-11-10T13:05:23;17.20;86.80
14733;DHT22;7457;50.960;6.830;2022-11-10T13:08:02;17.10;86.80
14733;DHT22;7457;50.960;6.830;2022-11-10T13:10:29;17.10;86.60
14733;DHT22;7457;50.960;6.830;2022-11-10T13:20:56;16.90;87.30
14733;DHT22;7457;50.960;6.830;2022-11-10T13:26:10;16.80;87.30
14733;DHT22;7457;50.960;6.830;2022-11-10T13:34:25;16.80;88.30
14733;DHT22;7457;50.960;6.830;2022-11-10T13:36:51;16.80;88.30
14733;DHT22;7457;50.960;6.830;2022-11-10T13:41:57;16.70;88.70
14733;DHT22;7457;50.960;6.830;2022-11-10T13:57:39;16.40;88.20
14733;DHT22;7457;50.960;6.830;2022-11-10T14:02:47;16.30;88.50
14733;DHT22;7457;50.960;6.830;2022-11-10T14:08:10;16.20;88.80
14733;DHT22;7457;50.960;6.830;2022-11-10T14:10:58;16.20;89.00
14733;DHT22;7457;50.960;6.830;2022-11-10T14:13:56;16.10;88.70
14733;DHT22;7457;50.960;6.830;2022-11-10T14:16:27;16.10;89.00
14733;DHT22;7457;50.960;6.830;2022-11-10T14:18:56;16.00;89.10
14733;DHT22;7457;50.960;6.830;2022-11-10T14:21:28;16.00;89.30
14733;DHT22;7457;50.960;6.830;2022-11-10T14:24:04;16.00;89.70
14733;DHT22;7457;50.960;6.830;2022-11-10T14:26:37;15.90;89.80
14733;DHT22;7457;50.960;6.830;2022-11-10T14:29:29;15.90;89.90
14733;DHT22;7457;50.960;6.830;2022-11-10T14:32:00;15.80;89.90
14733;DHT22;7457;50.960;6.830;2022-11-10T14:34:27;15.80;90.10
14733;DHT22;7457;50.960;6.830;2022-11-10T14:36:55;15.80;90.10
14733;DHT22;7457;50.960;6.830;2022-11-10T14:39:42;15.70;90.10
14733;DHT22;7457;50.960;6.830;2022-11-10T14:42:13;15.60;90.20
14733;DHT22;7457;50.960;6.830;2022-11-10T14:44:43;15.60;90.50
14733;DHT22;7457;50.960;6.830;2022-11-10T14:47:24;15.50;90.60
14733;DHT22;7457;50.960;6.830;2022-11-10T14:52:39;15.30;90.60
14733;DHT22;7457;50.960;6.830;2022-11-10T14:55:19;15.20;90.80
14733;DHT22;7457;50.960;6.830;2022-11-10T14:57:55;15.20;90.90
14733;DHT22;7457;50.960;6.830;2022-11-10T15:00:25;15.00;91.00
14733;DHT22;7457;50.960;6.830;2022-11-10T15:02:56;14.90;91.30
14733;DHT22;7457;50.960;6.830;2022-11-10T15:05:23;14.80;91.40
14733;DHT22;7457;50.960;6.830;2022-11-10T15:07:55;14.70;91.30
14733;DHT22;7457;50.960;6.830;2022-11-10T15:10:26;14.70;91.60
14733;DHT22;7457;50.960;6.830;2022-11-10T15:15:41;14.50;91.80
14733;DHT22;7457;50.960;6.830;2022-11-10T15:18:27;14.30;91.90
14733;DHT22;7457;50.960;6.830;2022-11-10T15:21:04;14.30;92.00
14733;DHT22;7457;50.960;6.830;2022-11-10T15:23:37;14.20;92.20
14733;DHT22;7457;50.960;6.830;2022-11-10T15:26:05;14.10;92.40
14733;DHT22;7457;50.960;6.830;2022-11-10T15:28:32;14.00;92.50
14733;DHT22;7457;50.960;6.830;2022-11-10T15:31:04;13.90;92.50
14733;DHT22;7457;50.960;6.830;2022-11-10T15:33:33;13.90;92.70
14733;DHT22;7457;50.960;6.830;2022-11-10T15:36:14;13.80;92.70
14733;DHT22;7457;50.960;6.830;2022-11-10T15:38:40;13.80;92.80
14733;DHT22;7457;50.960;6.830;2022-11-10T15:41:14;13.80;92.80
14733;DHT22;7457;50.960;6.830;2022-11-10T15:43:40;13.80;92.90
14733;DHT22;7457;50.960;6.830;2022-11-10T15:46:14;13.80;92.80
14733;DHT22;7457;50.960;6.830;2022-11-10T15:48:44;13.90;92.90
14733;DHT22;7457;50.960;6.830;2022-11-10T15:51:12;13.80;92.90
14733;DHT22;7457;50.960;6.830;2022-11-10T15:53:48;13.80;92.90
14733;DHT22;7457;50.960;6.830;2022-11-10T15:56:20;13.80;93.00
14733;DHT22;7457;50.960;6.830;2022-11-10T15:58:48;13.70;93.00
14733;DHT22;7457;50.960;6.830;2022-11-10T16:01:15;13.70;93.10
14733;DHT22;7457;50.960;6.830;2022-11-10T16:03:41;13.60;93.20
14733;DHT22;7457;50.960;6.830;2022-11-10T16:06:11;13.50;93.30
14733;DHT22;7457;50.960;6.830;2022-11-10T16:08:37;13.50;93.30
14733;DHT22;7457;50.960;6.830;2022-11-10T16:11:03;13.50;93.30
14733;DHT22;7457;50.960;6.830;2022-11-10T16:13:30;13.50;93.50
14733;DHT22;7457;50.960;6.830;2022-11-10T16:15:58;13.50;93.60
14733;DHT22;7457;50.960;6.830;2022-11-10T16:18:28;13.60;94.00
14733;DHT22;7457;50.960;6.830;2022-11-10T16:20:55;13.60;94.20
14733;DHT22;7457;50.960;6.830;2022-11-10T16:23:21;13.70;94.60
14733;DHT22;7457;50.960;6.830;2022-11-10T16:25:49;13.70;94.60
14733;DHT22;7457;50.960;6.830;2022-11-10T16:28:25;13.70;94.90
14733;DHT22;7457;50.960;6.830;2022-11-10T16:30:52;13.70;95.10
14733;DHT22;7457;50.960;6.830;2022-11-10T16:33:20;13.70;95.40
14733;DHT22;7457;50.960;6.830;2022-11-10T16:35:51;13.60;95.50
14733;DHT22;7457;50.960;6.830;2022-11-10T16:38:22;13.60;95.80
14733;DHT22;7457;50.960;6.830;2022-11-10T16:41:02;13.60;95.80
14733;DHT22;7457;50.960;6.830;2022-11-10T16:46:17;13.50;96.20
14733;DHT22;7457;50.960;6.830;2022-11-10T16:48:45;13.40;96.40
14733;DHT22;7457;50.960;6.830;2022-11-10T16:51:11;13.40;96.40
14733;DHT22;7457;50.960;6.830;2022-11-10T16:53:39;13.30;96.60
14733;DHT22;7457;50.960;6.830;2022-11-10T16:56:08;13.20;96.70
14733;DHT22;7457;50.960;6.830;2022-11-10T16:58:36;13.20;97.00
14733;DHT22;7457;50.960;6.830;2022-11-10T17:01:02;13.10;97.10
14733;DHT22;7457;50.960;6.830;2022-11-10T17:03:35;13.00;97.20
14733;DHT22;7457;50.960;6.830;2022-11-10T17:06:01;13.00;97.20
14733;DHT22;7457;50.960;6.830;2022-11-10T17:08:29;12.90;97.30
14733;DHT22;7457;50.960;6.830;2022-11-10T17:10:55;12.90;97.40
14733;DHT22;7457;50.960;6.830;2022-11-10T17:13:24;12.80;97.60
14733;DHT22;7457;50.960;6.830;2022-11-10T17:15:52;12.70;97.90
14733;DHT22;7457;50.960;6.830;2022-11-10T17:18:21;12.60;98.10
14733;DHT22;7457;50.960;6.830;2022-11-10T17:20:50;12.60;98.30
14733;DHT22;7457;50.960;6.830;2022-11-10T17:23:20;12.60;98.60
14733;DHT22;7457;50.960;6.830;2022-11-10T17:25:47;12.50;98.60
14733;DHT22;7457;50.960;6.830;2022-11-10T17:28:16;12.50;98.90
14733;DHT22;7457;50.960;6.830;2022-11-10T17:30:42;12.40;99.00
14733;DHT22;7457;50.960;6.830;2022-11-10T17:33:08;12.40;99.20
14733;DHT22;7457;50.960;6.830;2022-11-10T17:35:42;12.40;99.30
14733;DHT22;7457;50.960;6.830;2022-11-10T17:38:11;12.30;99.40
14733;DHT22;7457;50.960;6.830;2022-11-10T17:40:39;12.30;99.60
14733;DHT22;7457;50.960;6.830;2022-11-10T17:43:07;12.20;99.60
14733;DHT22;7457;50.960;6.830;2022-11-10T17:45:33;12.20;99.60
14733;DHT22;7457;50.960;6.830;2022-11-10T17:47:58;12.20;99.80
14733;DHT22;7457;50.960;6.830;2022-11-10T17:50:25;12.10;99.80
14733;DHT22;7457;50.960;6.830;2022-11-10T17:52:50;12.10;99.90
14733;DHT22;7457;50.960;6.830;2022-11-10T17:55:23;12.10;99.90
14733;DHT22;7457;50.960;6.830;2022-11-10T17:57:50;12.10;99.90
14733;DHT22;7457;50.960;6.830;2022-11-10T18:00:17;12.00;99.90
14733;DHT22;7457;50.960;6.830;2022-11-10T18:02:44;12.00;99.90
14733;DHT22;7457;50.960;6.830;2022-11-10T18:05:12;12.00;99.90
14733;DHT22;7457;50.960;6.830;2022-11-10T18:07:38;11.90;99.90
14733;DHT22;7457;50.960;6.830;2022-11-10T18:10:05;11.90;99.90
14733;DHT22;7457;50.960;6.830;2022-11-10T18:12:31;12.00;99.90
14733;DHT22;7457;50.960;6.830;2022-11-10T18:14:57;11.90;99.90
14733;DHT22;7457;50.960;6.830;2022-11-10T18:17:22;11.90;99.90
14733;DHT22;7457;50.960;6.830;2022-11-10T18:19:48;11.80;99.90
14733;DHT22;7457;50.960;6.830;2022-11-10T18:22:14;11.80;99.90
14733;DHT22;7457;50.960;6.830;2022-11-10T18:24:39;11.80;99.90
14733;DHT22;7457;50.960;6.830;2022-11-10T18:27:06;11.80;99.90
14733;DHT22;7457;50.960;6.830;2022-11-10T18:29:32;11.80;99.90